Time;durP1;ratioP1;P1;durP2;ratioP2;P2;SDS_P1;SDS_P2;PMS_P1;PMS_P2;Temp;Humidity;BMP_temperature;BMP_pressure;BME280_temperature;BME280_humidity;BME280_pressure;Samples;Min_cycle;Max_cycle;Signal;HPM_P1;HPM_P2
2021/05/24 00:00:31;;;;;;;4.63;2.55;;;12.30;99.90;;;;;;4178206;28;20483;-74
2021/05/24 00:02:31;;;;;;;5.97;2.80;;;12.20;99.90;;;;;;4159910;28;20036;-74
2021/05/24 00:04:32;;;;;;;6.18;2.97;;;12.20;99.90;;;;;;4160673;28;20029;-73
2021/05/24 00:06:32;;;;;;;5.90;4.30;;;12.30;99.90;;;;;;4178495;28;20029;-73
2021/05/24 00:08:33;;;;;;;4.90;3.00;;;12.30;99.90;;;;;;4178263;28;20040;-74
2021/05/24 00:10:37;;;;;;;5.05;3.08;;;12.30;99.90;;;;;;4160989;28;20033;-74
2021/05/24 00:12:40;;;;;;;4.45;2.75;;;12.30;99.90;;;;;;4179599;28;20554;-74
2021/05/24 00:14:41;;;;;;;2.87;2.53;;;12.20;99.90;;;;;;4179736;28;20033;-74
2021/05/24 00:16:41;;;;;;;6.18;2.80;;;12.20;99.90;;;;;;4179300;28;20587;-75
2021/05/24 00:18:43;;;;;;;4.10;2.60;;;12.30;99.90;;;;;;4161704;28;20052;-74
2021/05/24 00:20:50;;;;;;;3.42;2.75;;;12.40;99.90;;;;;;4179456;28;20037;-74
2021/05/24 00:22:52;;;;;;;3.22;2.60;;;12.40;99.90;;;;;;4158764;28;20030;-74
2021/05/24 00:24:52;;;;;;;5.00;2.70;;;12.40;99.90;;;;;;4179374;28;20061;-74
2021/05/24 00:26:53;;;;;;;4.80;3.58;;;12.40;99.90;;;;;;4179724;28;20033;-74
2021/05/24 00:28:54;;;;;;;5.82;2.80;;;12.40;99.90;;;;;;4161521;28;20120;-74
2021/05/24 00:30:54;;;;;;;5.70;2.85;;;12.50;99.90;;;;;;4161940;28;20034;-74
2021/05/24 00:32:55;;;;;;;4.38;3.25;;;12.50;99.90;;;;;;4179228;28;20094;-76
2021/05/24 00:34:55;;;;;;;5.78;2.53;;;12.60;99.90;;;;;;4179544;28;20533;-72
2021/05/24 00:36:56;;;;;;;3.33;2.85;;;12.50;99.90;;;;;;4179374;28;20354;-75
2021/05/24 00:38:57;;;;;;;3.25;2.70;;;12.60;99.90;;;;;;4179508;28;20025;-74
2021/05/24 00:40:58;;;;;;;5.18;2.42;;;12.60;99.90;;;;;;4179282;28;20487;-74
2021/05/24 00:42:58;;;;;;;3.40;2.47;;;12.60;99.90;;;;;;4161630;28;20092;-74
2021/05/24 00:45:00;;;;;;;7.80;2.72;;;12.60;99.90;;;;;;4161544;28;20112;-74
2021/05/24 00:47:00;;;;;;;6.07;2.80;;;12.60;99.90;;;;;;4161368;28;20388;-74
2021/05/24 00:49:01;;;;;;;5.55;2.70;;;12.60;99.90;;;;;;4175885;28;20064;-75
2021/05/24 00:51:02;;;;;;;4.03;2.50;;;12.60;99.90;;;;;;4171686;28;20126;-74
2021/05/24 00:53:03;;;;;;;2.92;2.35;;;12.60;99.90;;;;;;4176872;28;20060;-74
2021/05/24 00:55:06;;;;;;;3.22;2.10;;;12.60;99.90;;;;;;4160184;28;20034;-74
2021/05/24 00:57:10;;;;;;;2.85;2.28;;;12.60;99.90;;;;;;4177955;28;20502;-75
2021/05/24 00:59:11;;;;;;;2.92;2.20;;;12.60;99.90;;;;;;4160254;28;20119;-75
2021/05/24 01:01:12;;;;;;;5.35;2.80;;;12.60;99.90;;;;;;4160400;28;20025;-74
2021/05/24 01:03:13;;;;;;;3.05;2.13;;;12.70;99.90;;;;;;4178636;28;20037;-73
2021/05/24 01:05:15;;;;;;;6.28;3.08;;;12.80;99.90;;;;;;4178571;28;20383;-74
2021/05/24 01:07:16;;;;;;;3.17;2.42;;;12.70;99.90;;;;;;4160870;28;20045;-73
2021/05/24 01:09:18;;;;;;;3.10;2.28;;;12.70;99.90;;;;;;4179423;28;20440;-73
2021/05/24 01:11:21;;;;;;;2.85;2.10;;;12.70;99.90;;;;;;4178733;28;20047;-74
2021/05/24 01:13:22;;;;;;;3.08;2.33;;;12.70;99.90;;;;;;4179117;28;20025;-75
2021/05/24 01:15:23;;;;;;;4.88;2.40;;;12.80;99.90;;;;;;4182334;28;20051;-74
2021/05/24 01:17:23;;;;;;;3.95;2.40;;;12.90;99.90;;;;;;4182205;28;20388;-74
2021/05/24 01:19:25;;;;;;;3.58;2.20;;;13.00;99.90;;;;;;4164363;28;20056;-73
2021/05/24 01:21:26;;;;;;;3.53;2.00;;;13.00;99.90;;;;;;4182232;28;20109;-73
2021/05/24 01:23:27;;;;;;;2.30;2.10;;;13.00;99.90;;;;;;4164663;28;20187;-74
2021/05/24 01:25:33;;;;;;;3.80;2.35;;;13.00;99.90;;;;;;4182162;28;20056;-74
2021/05/24 01:27:34;;;;;;;2.72;1.98;;;13.00;99.90;;;;;;4164305;28;20103;-75
2021/05/24 01:29:34;;;;;;;3.47;2.10;;;13.10;99.90;;;;;;4182068;28;20021;-73
2021/05/24 01:31:35;;;;;;;2.03;1.80;;;13.10;99.90;;;;;;4164153;28;20033;-74
2021/05/24 01:33:36;;;;;;;4.38;1.95;;;13.10;99.90;;;;;;4182001;28;20036;-74
2021/05/24 01:35:39;;;;;;;8.80;2.28;;;13.10;99.90;;;;;;4164215;28;20416;-74
2021/05/24 01:37:40;;;;;;;5.17;2.50;;;13.10;99.90;;;;;;4181658;28;20045;-74
2021/05/24 01:39:41;;;;;;;3.47;2.20;;;13.00;99.90;;;;;;4164390;28;20037;-74
2021/05/24 01:41:42;;;;;;;3.00;2.45;;;13.00;99.90;;;;;;4164370;28;20104;-74
2021/05/24 01:43:43;;;;;;;2.67;2.10;;;13.00;99.90;;;;;;4181992;28;20040;-74
2021/05/24 01:45:44;;;;;;;2.35;2.05;;;13.10;99.90;;;;;;4181890;28;20037;-74
2021/05/24 01:47:44;;;;;;;2.78;2.22;;;13.10;99.90;;;;;;4182007;28;20021;-74
2021/05/24 01:49:48;;;;;;;2.40;2.20;;;13.10;99.90;;;;;;4163992;28;20041;-74
2021/05/24 01:51:49;;;;;;;6.13;2.28;;;13.00;99.90;;;;;;4163467;28;20041;-74
2021/05/24 01:53:49;;;;;;;3.33;2.15;;;13.00;99.90;;;;;;4162796;28;20036;-74
2021/05/24 01:55:51;;;;;;;2.03;1.85;;;13.00;99.90;;;;;;4180369;28;20039;-74
2021/05/24 01:57:53;;;;;;;1.70;1.58;;;13.10;99.90;;;;;;4180734;28;20029;-74
2021/05/24 01:59:54;;;;;;;2.83;2.30;;;13.10;99.90;;;;;;4162539;28;20108;-74
2021/05/24 02:01:54;;;;;;;3.17;2.33;;;13.20;99.90;;;;;;4162687;28;20038;-74
2021/05/24 02:03:55;;;;;;;2.00;1.90;;;13.20;99.90;;;;;;4180595;28;20025;-73
2021/05/24 02:05:56;;;;;;;3.30;2.33;;;13.10;99.90;;;;;;4161985;28;20036;-73
2021/05/24 02:07:57;;;;;;;4.45;2.67;;;13.20;99.90;;;;;;4162148;28;20100;-74
2021/05/24 02:09:58;;;;;;;7.10;2.85;;;13.20;99.90;;;;;;4162941;28;20037;-74
2021/05/24 02:11:58;;;;;;;4.55;2.17;;;13.10;99.90;;;;;;4162490;28;20041;-74
2021/05/24 02:13:59;;;;;;;6.18;2.30;;;13.10;99.90;;;;;;4180207;28;20045;-74
2021/05/24 02:15:59;;;;;;;4.35;2.42;;;13.10;99.90;;;;;;4161930;28;20128;-75
2021/05/24 02:18:00;;;;;;;4.03;2.25;;;13.20;99.90;;;;;;4180070;28;20035;-73
2021/05/24 02:20:03;;;;;;;2.00;1.80;;;13.20;99.90;;;;;;4179919;28;20058;-75
2021/05/24 02:22:04;;;;;;;4.07;1.98;;;13.10;99.90;;;;;;4180642;28;20087;-74
2021/05/24 02:24:06;;;;;;;4.20;2.00;;;13.00;99.90;;;;;;4181137;28;20029;-73
2021/05/24 02:26:06;;;;;;;2.83;2.10;;;13.00;99.90;;;;;;4166680;28;20030;-74
2021/05/24 02:28:07;;;;;;;3.55;2.15;;;13.10;99.90;;;;;;4180623;28;20109;-74
2021/05/24 02:30:09;;;;;;;5.60;2.30;;;13.00;99.90;;;;;;4163441;28;20104;-74
2021/05/24 02:32:09;;;;;;;3.33;1.80;;;13.00;99.90;;;;;;4181037;28;20052;-74
2021/05/24 02:34:10;;;;;;;2.17;1.80;;;13.00;99.90;;;;;;4181041;28;20025;-73
2021/05/24 02:36:11;;;;;;;2.80;2.13;;;13.00;99.90;;;;;;4181040;28;20025;-73
2021/05/24 02:38:12;;;;;;;4.60;1.83;;;13.00;99.90;;;;;;4162462;28;20040;-75
2021/05/24 02:40:15;;;;;;;6.07;2.95;;;13.00;99.90;;;;;;4180839;28;20049;-74
2021/05/24 02:42:16;;;;;;;3.17;1.92;;;13.00;99.90;;;;;;4181221;28;20029;-74
2021/05/24 02:44:18;;;;;;;5.60;2.92;;;13.00;99.90;;;;;;4180916;28;20040;-74
2021/05/24 02:46:18;;;;;;;2.75;1.65;;;13.10;99.90;;;;;;4180413;28;20539;-75
2021/05/24 02:51:16;;;;;;;4.00;2.22;;;13.10;99.90;;;;;;4176451;28;20118;-74
2021/05/24 02:53:17;;;;;;;4.45;2.05;;;13.10;99.90;;;;;;4163101;28;20030;-75
2021/05/24 02:55:17;;;;;;;4.65;2.90;;;13.00;99.90;;;;;;4180873;28;20025;-73
2021/05/24 02:57:18;;;;;;;4.82;2.58;;;13.00;99.90;;;;;;4180857;28;20037;-73
2021/05/24 02:59:19;;;;;;;3.85;2.10;;;13.00;99.90;;;;;;4180768;28;20029;-73
2021/05/24 03:01:21;;;;;;;5.55;2.53;;;12.80;99.90;;;;;;4180262;28;20086;-73
2021/05/24 03:03:22;;;;;;;3.72;1.75;;;12.80;99.90;;;;;;4162866;28;20045;-73
2021/05/24 03:05:23;;;;;;;5.68;2.08;;;12.80;99.90;;;;;;4163210;28;20041;-73
2021/05/24 03:07:24;;;;;;;2.53;1.80;;;12.90;99.90;;;;;;4180836;28;20531;-73
2021/05/24 03:09:25;;;;;;;2.70;2.08;;;13.00;99.90;;;;;;4162683;28;20401;-74
2021/05/24 03:11:27;;;;;;;5.72;2.35;;;13.00;99.90;;;;;;4163249;28;20396;-75
2021/05/24 03:13:28;;;;;;;3.33;2.15;;;13.00;99.90;;;;;;4162474;28;20117;-74
2021/05/24 03:15:28;;;;;;;3.65;2.20;;;13.00;99.90;;;;;;4180595;28;20400;-74
2021/05/24 03:17:29;;;;;;;4.30;1.92;;;13.00;99.90;;;;;;4180522;28;20017;-74
2021/05/24 03:19:30;;;;;;;2.60;1.83;;;13.00;99.90;;;;;;4180116;28;20029;-75
2021/05/24 03:21:31;;;;;;;4.53;2.28;;;12.90;99.90;;;;;;4162775;28;20018;-73
2021/05/24 03:23:32;;;;;;;4.32;1.85;;;12.90;99.90;;;;;;4180475;28;20028;-73
2021/05/24 03:25:33;;;;;;;4.70;2.45;;;12.90;99.90;;;;;;4162588;28;20033;-74
2021/05/24 03:27:34;;;;;;;2.85;1.98;;;12.90;99.90;;;;;;4161834;28;20025;-73
2021/05/24 03:29:35;;;;;;;2.72;2.10;;;12.90;99.90;;;;;;4180189;28;20036;-73
2021/05/24 03:31:35;;;;;;;4.22;2.05;;;13.00;99.90;;;;;;4161834;28;20032;-74
2021/05/24 03:33:37;;;;;;;5.13;2.63;;;13.00;99.90;;;;;;4161507;28;20087;-74
2021/05/24 03:35:39;;;;;;;3.97;2.53;;;12.90;99.90;;;;;;4179288;28;20140;-73
2021/05/24 03:37:40;;;;;;;4.35;2.10;;;12.90;99.90;;;;;;4179241;28;20029;-74
2021/05/24 03:39:40;;;;;;;13.20;2.78;;;12.90;99.90;;;;;;4175937;28;20025;-74
2021/05/24 03:41:41;;;;;;;3.28;1.90;;;12.90;99.90;;;;;;4167899;28;20037;-74
2021/05/24 03:43:44;;;;;;;7.38;2.20;;;12.80;99.90;;;;;;4178762;28;20025;-75
2021/05/24 03:45:45;;;;;;;6.03;2.10;;;12.80;99.90;;;;;;4179053;28;20035;-74
2021/05/24 03:47:45;;;;;;;3.05;2.20;;;12.80;99.90;;;;;;4178865;28;20060;-75
2021/05/24 03:49:46;;;;;;;2.92;2.17;;;12.80;99.90;;;;;;4182358;28;20060;-74
2021/05/24 03:51:46;;;;;;;5.10;2.00;;;12.80;99.90;;;;;;4162255;28;20037;-75
2021/05/24 03:53:47;;;;;;;10.18;2.30;;;12.80;99.90;;;;;;4160942;28;20033;-75
2021/05/24 03:55:47;;;;;;;5.40;2.05;;;12.80;99.90;;;;;;4161952;28;20396;-75
2021/05/24 03:57:49;;;;;;;3.40;2.08;;;12.80;99.90;;;;;;4162183;28;20068;-74
2021/05/24 03:59:49;;;;;;;3.85;1.90;;;12.80;99.90;;;;;;4162382;28;20034;-74
2021/05/24 04:01:50;;;;;;;4.43;2.10;;;12.80;99.90;;;;;;4160853;28;20457;-74
2021/05/24 04:03:53;;;;;;;2.92;1.90;;;12.80;99.90;;;;;;4162821;28;20034;-75
2021/05/24 04:05:59;;;;;;;2.05;1.85;;;12.80;99.90;;;;;;4162570;28;20676;-74
2021/05/24 04:08:01;;;;;;;3.60;2.10;;;12.80;99.90;;;;;;4160324;28;20056;-74
2021/05/24 04:10:03;;;;;;;4.05;2.53;;;12.70;99.90;;;;;;4160830;28;20034;-75
2021/05/24 04:12:04;;;;;;;2.55;1.90;;;12.70;99.90;;;;;;4178358;28;20036;-74
2021/05/24 04:14:05;;;;;;;7.80;2.30;;;12.70;99.90;;;;;;4161751;28;20030;-75
2021/05/24 04:16:06;;;;;;;2.25;1.95;;;12.80;99.90;;;;;;4163106;28;20120;-75
2021/05/24 04:18:13;;;;;;;2.42;1.70;;;12.80;99.90;;;;;;4161992;28;20539;-75
2021/05/24 04:20:14;;;;;;;2.40;2.00;;;12.90;99.90;;;;;;4163451;28;20033;-75
2021/05/24 04:22:15;;;;;;;5.30;1.73;;;12.80;99.90;;;;;;4161756;28;20029;-74
2021/05/24 04:24:16;;;;;;;2.95;2.25;;;12.90;99.90;;;;;;4163349;28;20156;-75
2021/05/24 04:26:16;;;;;;;3.47;2.47;;;12.90;99.90;;;;;;4163145;28;20034;-74
2021/05/24 04:28:17;;;;;;;3.50;1.95;;;12.80;99.90;;;;;;4163038;28;20018;-75
2021/05/24 04:30:18;;;;;;;5.15;2.33;;;12.80;99.90;;;;;;4161947;28;20563;-75
2021/05/24 04:32:18;;;;;;;5.97;3.08;;;12.80;99.90;;;;;;4162999;28;20392;-75
2021/05/24 04:34:19;;;;;;;3.47;2.35;;;12.80;99.90;;;;;;4161898;28;20037;-75
2021/05/24 04:36:20;;;;;;;3.40;1.80;;;12.90;99.90;;;;;;4161723;28;20021;-74
2021/05/24 04:38:21;;;;;;;3.63;2.67;;;12.90;99.90;;;;;;4162643;28;20037;-75
2021/05/24 04:40:21;;;;;;;5.57;2.03;;;12.90;99.90;;;;;;4161649;28;20033;-75
2021/05/24 04:42:22;;;;;;;2.65;1.83;;;12.90;99.90;;;;;;4163121;28;20029;-75
2021/05/24 04:44:23;;;;;;;5.25;2.83;;;12.90;99.90;;;;;;4162883;28;20036;-75
2021/05/24 04:46:24;;;;;;;3.42;1.88;;;13.00;99.90;;;;;;4163004;28;20041;-75
2021/05/24 04:48:25;;;;;;;5.13;2.20;;;12.90;99.90;;;;;;4160933;28;20103;-75
2021/05/24 04:50:25;;;;;;;3.13;2.08;;;12.90;99.90;;;;;;4168541;28;20080;-75
2021/05/24 04:52:26;;;;;;;14.55;3.83;;;13.00;99.90;;;;;;4160071;28;20083;-75
2021/05/24 04:54:27;;;;;;;8.68;1.95;;;13.00;99.90;;;;;;4161492;28;20116;-75
2021/05/24 04:56:28;;;;;;;4.35;1.80;;;13.10;99.90;;;;;;4179310;28;20429;-76
2021/05/24 04:58:29;;;;;;;4.03;2.60;;;13.20;99.90;;;;;;4161733;28;20095;-75
2021/05/24 05:00:31;;;;;;;5.40;2.10;;;13.10;99.90;;;;;;4178775;28;20622;-75
2021/05/24 05:02:31;;;;;;;1.92;1.80;;;13.00;99.90;;;;;;4161103;28;20029;-75
2021/05/24 05:04:32;;;;;;;4.00;2.10;;;13.00;99.90;;;;;;4178653;28;20075;-75
2021/05/24 05:06:33;;;;;;;4.68;2.17;;;13.00;99.90;;;;;;4160895;28;20037;-75
2021/05/24 05:08:34;;;;;;;5.90;2.17;;;13.00;99.90;;;;;;4194314;28;20083;-75
2021/05/24 05:10:35;;;;;;;3.90;2.22;;;13.10;99.90;;;;;;4178772;28;20033;-75
2021/05/24 05:12:35;;;;;;;4.82;1.98;;;13.10;99.90;;;;;;4178128;28;20032;-75
2021/05/24 05:14:36;;;;;;;2.35;2.00;;;13.00;99.90;;;;;;4176105;28;20021;-75
2021/05/24 05:16:36;;;;;;;3.92;1.80;;;12.80;99.90;;;;;;4178450;28;20499;-76
2021/05/24 05:18:37;;;;;;;6.82;2.30;;;12.80;99.90;;;;;;4178855;28;20199;-76
2021/05/24 05:20:39;;;;;;;3.88;2.42;;;12.60;99.90;;;;;;4178576;28;20056;-75
2021/05/24 05:22:40;;;;;;;3.90;2.28;;;12.50;99.90;;;;;;4160926;28;20057;-75
2021/05/24 05:24:41;;;;;;;9.50;2.25;;;12.40;99.90;;;;;;4178829;28;20124;-75
2021/05/24 05:26:43;;;;;;;3.92;1.90;;;12.20;99.90;;;;;;4178837;28;20025;-75
2021/05/24 05:28:43;;;;;;;3.20;2.00;;;12.20;99.90;;;;;;4178497;28;20074;-75
2021/05/24 05:30:44;;;;;;;3.13;2.35;;;12.20;99.90;;;;;;4160855;28;20072;-75
2021/05/24 05:32:45;;;;;;;3.30;2.00;;;12.10;99.90;;;;;;4178923;28;20036;-75
2021/05/24 05:34:45;;;;;;;3.08;1.95;;;12.00;99.90;;;;;;4178127;28;20052;-76
2021/05/24 05:36:46;;;;;;;6.50;2.28;;;11.90;99.90;;;;;;4160690;28;20037;-76
2021/05/24 05:38:47;;;;;;;4.60;2.30;;;11.70;99.90;;;;;;4161340;28;20224;-76
2021/05/24 05:40:51;;;;;;;4.70;2.17;;;11.60;99.90;;;;;;4160752;28;20030;-75
2021/05/24 05:42:53;;;;;;;4.70;2.55;;;11.50;99.90;;;;;;4160674;28;20040;-76
2021/05/24 05:44:53;;;;;;;6.45;2.35;;;11.40;99.90;;;;;;4178920;28;20037;-76
2021/05/24 05:46:54;;;;;;;4.47;2.30;;;11.40;99.90;;;;;;4177882;28;20086;-75
2021/05/24 05:48:55;;;;;;;6.88;2.67;;;11.40;99.90;;;;;;4178005;28;20116;-76
2021/05/24 05:50:55;;;;;;;2.80;2.50;;;11.40;99.90;;;;;;4177421;28;20053;-76
2021/05/24 05:52:58;;;;;;;3.53;2.42;;;11.40;99.90;;;;;;4160949;28;20499;-75
2021/05/24 05:54:59;;;;;;;9.32;2.95;;;11.60;99.90;;;;;;4194276;28;20032;-76
2021/05/24 05:56:59;;;;;;;4.38;2.13;;;11.50;99.90;;;;;;4160957;28;20060;-76
2021/05/24 05:59:01;;;;;;;5.13;2.20;;;11.50;99.90;;;;;;4144554;28;20030;-76
2021/05/24 06:01:03;;;;;;;3.65;2.20;;;11.60;99.90;;;;;;4194960;28;20039;-76
2021/05/24 06:03:05;;;;;;;4.32;2.70;;;11.80;99.90;;;;;;4163655;28;20030;-76
2021/05/24 06:05:06;;;;;;;2.63;2.28;;;11.80;99.90;;;;;;4182148;28;20854;-76
2021/05/24 06:07:06;;;;;;;4.93;2.17;;;11.90;99.90;;;;;;4181851;28;20037;-76
2021/05/24 06:09:08;;;;;;;2.58;2.20;;;12.00;99.90;;;;;;4181183;28;20384;-76
2021/05/24 06:11:09;;;;;;;3.88;2.00;;;12.10;99.90;;;;;;4163652;28;20064;-77
2021/05/24 06:13:09;;;;;;;6.70;2.50;;;12.20;99.90;;;;;;4163827;28;20033;-77
2021/05/24 06:15:15;;;;;;;2.13;1.77;;;12.30;99.90;;;;;;4181151;28;20107;-76
2021/05/24 06:17:15;;;;;;;1.85;1.63;;;12.30;99.90;;;;;;4181952;28;20069;-76
2021/05/24 06:19:16;;;;;;;4.10;2.05;;;12.40;99.90;;;;;;4163958;28;20409;-75
2021/05/24 06:21:17;;;;;;;2.35;2.08;;;12.40;99.90;;;;;;4163396;28;20033;-76
2021/05/24 06:23:19;;;;;;;1.60;1.50;;;12.40;99.90;;;;;;4180665;28;20021;-76
2021/05/24 06:25:19;;;;;;;1.60;1.50;;;12.40;99.90;;;;;;4181886;28;20049;-76
2021/05/24 06:27:20;;;;;;;3.22;1.88;;;12.30;99.90;;;;;;4181519;28;20510;-76
2021/05/24 06:29:25;;;;;;;1.90;1.70;;;12.20;99.90;;;;;;4181241;28;20040;-76
2021/05/24 06:31:25;;;;;;;3.00;2.10;;;12.10;99.90;;;;;;4181183;28;20036;-77
2021/05/24 06:33:26;;;;;;;2.88;2.50;;;12.00;99.90;;;;;;4163489;28;20420;-76
2021/05/24 06:35:27;;;;;;;2.42;2.00;;;12.00;99.90;;;;;;4181040;28;20475;-76
2021/05/24 06:37:27;;;;;;;2.40;2.00;;;12.10;99.90;;;;;;4163624;28;20081;-76
2021/05/24 06:39:28;;;;;;;1.92;1.70;;;12.10;99.90;;;;;;4163512;28;20492;-76
2021/05/24 06:41:29;;;;;;;3.10;1.95;;;12.20;99.90;;;;;;4163437;28;20029;-76
2021/05/24 06:43:29;;;;;;;2.28;1.80;;;12.30;99.90;;;;;;4162980;28;20048;-76
2021/05/24 06:45:30;;;;;;;5.25;2.10;;;12.20;99.90;;;;;;4163247;28;20032;-76
2021/05/24 06:47:31;;;;;;;2.88;1.98;;;12.10;99.90;;;;;;4180372;28;20028;-76
2021/05/24 06:49:34;;;;;;;2.47;1.83;;;12.20;99.90;;;;;;4163029;28;20029;-76
2021/05/24 06:51:35;;;;;;;;;;;12.20;99.90;;;;;;4180292;28;20052;-76
2021/05/24 06:53:36;;;;;;;2.22;2.03;;;12.30;99.90;;;;;;4178733;28;19913;-77
2021/05/24 06:55:36;;;;;;;2.25;2.05;;;12.30;99.90;;;;;;4181294;28;20074;-76
2021/05/24 06:57:37;;;;;;;1.80;1.70;;;12.30;99.90;;;;;;4181274;28;20449;-75
2021/05/24 06:59:38;;;;;;;1.80;1.60;;;12.40;99.90;;;;;;4180672;28;20033;-75
2021/05/24 07:01:40;;;;;;;3.80;2.53;;;12.40;99.90;;;;;;4163192;28;20033;-75
2021/05/24 07:03:41;;;;;;;4.40;1.90;;;12.30;99.90;;;;;;4180962;28;20025;-75
2021/05/24 07:05:41;;;;;;;4.38;1.83;;;12.30;99.90;;;;;;4180956;28;20346;-75
2021/05/24 07:07:42;;;;;;;2.25;2.00;;;12.30;99.90;;;;;;4180028;28;20039;-75
2021/05/24 07:09:43;;;;;;;3.55;1.92;;;12.40;99.90;;;;;;4180216;28;20040;-75
2021/05/24 07:11:44;;;;;;;4.43;2.00;;;12.50;99.90;;;;;;4162549;28;20021;-75
2021/05/24 07:13:45;;;;;;;2.72;2.08;;;12.50;99.90;;;;;;4181276;28;20037;-75
2021/05/24 07:15:46;;;;;;;2.45;1.75;;;12.50;99.90;;;;;;4159274;28;20045;-75
2021/05/24 07:17:47;;;;;;;4.75;1.95;;;12.50;99.90;;;;;;4162802;28;20037;-75
2021/05/24 07:19:50;;;;;;;2.67;2.10;;;12.60;99.90;;;;;;4163095;28;20048;-75
2021/05/24 07:21:53;;;;;;;4.20;2.10;;;12.60;99.90;;;;;;4180364;28;20120;-74
2021/05/24 07:23:54;;;;;;;2.63;1.83;;;12.60;99.90;;;;;;4180672;28;20063;-75
2021/05/24 07:25:54;;;;;;;2.63;2.35;;;12.60;99.90;;;;;;4180067;28;20056;-74
2021/05/24 07:27:55;;;;;;;2.38;2.10;;;12.50;99.90;;;;;;4162274;28;20025;-74
2021/05/24 07:29:56;;;;;;;1.77;1.67;;;12.60;99.90;;;;;;4180627;28;20037;-75
2021/05/24 07:31:59;;;;;;;18.85;2.00;;;12.60;99.90;;;;;;4180187;28;20112;-75
2021/05/24 07:33:59;;;;;;;2.45;2.25;;;12.70;99.90;;;;;;4180615;28;20087;-75
2021/05/24 07:36:00;;;;;;;2.63;1.90;;;12.60;99.90;;;;;;4162205;28;20451;-75
2021/05/24 07:38:01;;;;;;;3.38;2.00;;;12.60;99.90;;;;;;4179968;28;20083;-75
2021/05/24 07:40:02;;;;;;;3.92;1.85;;;12.50;99.90;;;;;;4194270;28;20029;-75
2021/05/24 07:42:05;;;;;;;2.47;1.70;;;12.50;99.90;;;;;;4175867;28;20452;-76
2021/05/24 07:44:06;;;;;;;2.40;2.20;;;12.60;99.90;;;;;;4161556;28;20120;-75
2021/05/24 07:46:07;;;;;;;2.63;2.15;;;12.50;99.90;;;;;;4161267;28;20029;-76
2021/05/24 07:48:08;;;;;;;2.10;1.90;;;12.50;99.90;;;;;;4178827;28;20594;-76
2021/05/24 07:50:09;;;;;;;2.53;1.90;;;12.60;99.90;;;;;;4178682;28;20131;-75
2021/05/24 07:52:09;;;;;;;2.42;1.90;;;12.60;99.90;;;;;;4179036;28;20037;-76
2021/05/24 07:54:10;;;;;;;4.40;2.15;;;12.60;99.90;;;;;;4179014;28;20025;-75
2021/05/24 07:56:11;;;;;;;3.17;2.10;;;12.50;99.90;;;;;;4178865;28;20392;-75
2021/05/24 07:58:12;;;;;;;5.18;2.20;;;12.60;99.90;;;;;;4179197;28;20029;-75
2021/05/24 08:00:14;;;;;;;3.72;2.08;;;12.50;99.90;;;;;;4165169;28;20078;-75
2021/05/24 08:02:14;;;;;;;2.08;1.88;;;12.50;99.90;;;;;;4175070;28;20017;-75
2021/05/24 08:04:15;;;;;;;4.53;2.22;;;12.60;99.90;;;;;;4180175;28;20064;-74
2021/05/24 08:06:15;;;;;;;2.13;1.90;;;12.50;99.90;;;;;;4161952;28;20032;-74
2021/05/24 08:08:16;;;;;;;2.35;1.90;;;12.40;99.90;;;;;;4179833;28;20028;-75
2021/05/24 08:10:17;;;;;;;3.28;2.35;;;12.50;99.90;;;;;;4179179;28;20025;-75
2021/05/24 08:12:17;;;;;;;2.30;2.03;;;12.50;99.90;;;;;;4162074;28;20028;-75
2021/05/24 08:14:18;;;;;;;1.80;1.70;;;12.50;99.90;;;;;;4161649;28;20103;-74
2021/05/24 08:16:21;;;;;;;1.98;1.65;;;12.50;99.90;;;;;;4161720;28;20038;-75
2021/05/24 08:18:23;;;;;;;4.82;2.33;;;12.40;99.90;;;;;;4161733;28;20468;-75
2021/05/24 08:20:23;;;;;;;6.22;2.05;;;12.40;99.90;;;;;;4161419;28;20423;-75
2021/05/24 08:22:24;;;;;;;3.28;1.95;;;12.60;99.90;;;;;;4179104;28;20053;-75
2021/05/24 08:24:25;;;;;;;2.85;1.80;;;12.70;99.90;;;;;;4160598;28;20468;-76
2021/05/24 08:26:25;;;;;;;3.00;2.63;;;12.70;99.90;;;;;;4179328;28;20041;-76
2021/05/24 08:28:27;;;;;;;3.50;2.35;;;12.80;99.90;;;;;;4179272;28;20037;-76
2021/05/24 08:30:27;;;;;;;5.22;2.00;;;12.50;99.90;;;;;;4161612;28;20030;-75
2021/05/24 08:32:28;;;;;;;2.45;2.00;;;12.50;99.90;;;;;;4163714;28;20043;-75
2021/05/24 08:34:29;;;;;;;4.47;2.25;;;12.40;99.90;;;;;;4179165;28;20063;-75
2021/05/24 08:36:30;;;;;;;3.35;2.05;;;12.40;99.90;;;;;;4179449;28;20040;-76
2021/05/24 08:38:31;;;;;;;2.33;1.92;;;12.30;99.90;;;;;;4178871;28;20108;-76
2021/05/24 08:40:32;;;;;;;4.80;2.38;;;12.40;99.90;;;;;;4161544;28;20119;-76
2021/05/24 08:42:36;;;;;;;5.57;2.17;;;12.40;99.90;;;;;;4160794;28;20033;-76
2021/05/24 08:44:38;;;;;;;2.22;1.75;;;12.60;99.90;;;;;;4156554;28;20028;-76
2021/05/24 08:46:39;;;;;;;2.95;2.05;;;12.60;99.90;;;;;;4160413;28;20606;-77
2021/05/24 08:48:40;;;;;;;2.25;1.95;;;12.60;99.90;;;;;;4161246;28;20112;-76
2021/05/24 08:50:41;;;;;;;4.28;1.83;;;12.70;99.90;;;;;;4160626;28;20056;-76
2021/05/24 08:52:43;;;;;;;2.78;2.17;;;12.90;99.90;;;;;;4192761;28;20032;-76
2021/05/24 08:54:43;;;;;;;2.45;2.00;;;12.90;99.90;;;;;;4160473;28;20465;-77
2021/05/24 08:56:44;;;;;;;4.18;1.98;;;12.90;99.90;;;;;;4160262;28;20121;-76
2021/05/24 08:58:45;;;;;;;2.20;2.00;;;13.20;99.90;;;;;;4160801;28;20772;-74
2021/05/24 09:00:45;;;;;;;3.35;2.10;;;13.40;99.90;;;;;;4178524;28;20053;-76
2021/05/24 09:03:14;;;;;;;4.70;2.10;;;13.60;99.90;;;;;;4178314;28;20036;-76
2021/05/24 09:05:16;;;;;;;3.17;2.30;;;13.80;99.90;;;;;;4157958;28;20092;-76
2021/05/24 09:07:18;;;;;;;3.58;2.08;;;13.90;99.90;;;;;;4160698;28;20037;-77
2021/05/24 09:09:19;;;;;;;3.95;1.98;;;14.00;99.90;;;;;;4160701;28;20121;-76
2021/05/24 09:11:31;;;;;;;3.05;2.45;;;13.90;99.90;;;;;;4160172;28;20076;-77
2021/05/24 09:13:34;;;;;;;3.25;2.03;;;14.10;99.90;;;;;;4178551;28;20086;-76
2021/05/24 09:15:37;;;;;;;3.15;1.90;;;14.10;99.90;;;;;;4160640;28;20071;-78
2021/05/24 09:17:48;;;;;;;3.47;2.45;;;14.20;99.90;;;;;;4160835;28;20045;-78
2021/05/24 09:19:49;;;;;;;2.47;2.28;;;14.10;99.90;;;;;;4178921;28;20048;-77
2021/05/24 09:22:05;;;;;;;2.83;2.00;;;14.10;99.90;;;;;;4159825;28;20029;-77
2021/05/24 09:24:19;;;;;;;4.72;2.22;;;14.00;99.90;;;;;;4159700;28;20040;-77
2021/05/24 09:26:20;;;;;;;3.67;2.53;;;13.80;99.90;;;;;;4177955;28;20116;-77
2021/05/24 09:28:26;;;;;;;4.00;2.58;;;13.60;99.90;;;;;;4178355;28;21898;-76
2021/05/24 09:30:26;;;;;;;5.20;2.38;;;13.60;99.90;;;;;;4178694;28;20033;-77
2021/05/24 09:32:29;;;;;;;4.80;2.60;;;13.60;99.90;;;;;;4179116;28;20113;-76
2021/05/24 09:34:30;;;;;;;6.13;2.75;;;13.60;99.90;;;;;;4179618;28;20115;-77
2021/05/24 09:36:33;;;;;;;2.33;2.03;;;13.80;99.90;;;;;;4182330;28;20033;-78
2021/05/24 09:38:38;;;;;;;3.25;2.60;;;13.90;99.90;;;;;;4164414;28;20030;-76
2021/05/24 09:40:39;;;;;;;2.30;2.05;;;13.90;99.90;;;;;;4161704;28;20592;-76
2021/05/24 09:42:43;;;;;;;3.03;2.38;;;14.00;99.90;;;;;;4164605;28;20063;-76
2021/05/24 09:44:53;;;;;;;3.20;2.28;;;13.90;99.90;;;;;;4164027;28;20104;-78
2021/05/24 09:46:54;;;;;;;3.40;2.38;;;14.00;99.90;;;;;;4182064;28;20060;-76
2021/05/24 09:49:02;;;;;;;3.97;2.08;;;13.90;99.90;;;;;;4181987;28;20028;-76
2021/05/24 09:51:09;;;;;;;2.92;2.30;;;13.80;99.90;;;;;;4181106;28;20131;-76
2021/05/24 09:53:10;;;;;;;2.25;2.05;;;13.90;99.90;;;;;;4181988;28;20421;-75
2021/05/24 09:55:21;;;;;;;2.30;2.00;;;13.90;99.90;;;;;;4181823;28;20028;-78
2021/05/24 09:57:22;;;;;;;2.47;2.08;;;13.90;99.90;;;;;;4162332;28;20116;-76
2021/05/24 09:59:23;;;;;;;2.63;2.30;;;13.80;99.90;;;;;;4182405;28;20488;-76
2021/05/24 10:01:35;;;;;;;3.22;2.30;;;13.90;99.90;;;;;;4163890;28;20022;-76
2021/05/24 10:03:36;;;;;;;3.95;2.42;;;13.80;99.90;;;;;;4164135;28;20516;-75
2021/05/24 10:05:48;;;;;;;2.60;2.40;;;13.70;99.90;;;;;;4163700;28;20034;-74
2021/05/24 10:07:50;;;;;;;2.33;2.13;;;13.50;99.90;;;;;;4181728;28;20028;-75
2021/05/24 10:09:50;;;;;;;3.13;2.28;;;13.30;99.90;;;;;;4181645;28;20033;-76
2021/05/24 10:11:52;;;;;;;2.58;2.10;;;13.30;99.90;;;;;;4163898;28;20033;-76
2021/05/24 10:13:54;;;;;;;4.25;2.13;;;13.20;99.90;;;;;;4182133;28;20037;-76
2021/05/24 10:16:02;;;;;;;2.42;2.22;;;13.20;99.90;;;;;;4181821;28;20033;-75
2021/05/24 10:18:04;;;;;;;3.83;2.58;;;13.10;99.90;;;;;;4160138;28;20036;-75
2021/05/24 10:20:06;;;;;;;5.13;2.50;;;13.00;99.90;;;;;;4180310;28;20037;-75
2021/05/24 10:22:06;;;;;;;6.00;2.75;;;13.10;99.90;;;;;;4180843;28;20025;-76
2021/05/24 10:24:08;;;;;;;2.45;2.25;;;13.20;99.90;;;;;;4180081;28;20541;-76
2021/05/24 10:26:11;;;;;;;2.45;2.20;;;13.20;99.90;;;;;;4163386;28;20018;-76
2021/05/24 10:28:12;;;;;;;4.15;2.40;;;13.10;99.90;;;;;;4179773;28;20035;-75
2021/05/24 10:30:13;;;;;;;2.50;2.30;;;12.90;99.90;;;;;;4181037;28;20491;-76
2021/05/24 10:32:21;;;;;;;2.88;2.60;;;12.70;99.90;;;;;;4179992;28;20040;-76
2021/05/24 10:34:24;;;;;;;3.80;2.58;;;12.60;99.90;;;;;;4162754;28;20033;-75
2021/05/24 10:36:25;;;;;;;2.40;2.20;;;12.70;99.90;;;;;;4181299;28;20032;-76